Latest Weather Observations for Murrurundi Gap

IDN60801

Issued at 2:35 pm EST Thursday 24 April 2014 (issued every 30 minutes, with the page automatically refreshed every 10 minutes)

About weather observations | Map of weather stations | Latest weather observations for NSW | Other Formats
Station Details ID: 061392 Name: MURRURUNDI GAP AWS Lat: -31.74 Lon: 150.79 Height: 729.4 m
Data from the previous 72 hours. | See also: Recent months for locations in New South Wales
Date/Time
EST
Temp
°C
App
Temp
°C
Dew
Point
Rel
Hum
%
Delta-T
°C
Wind Press
QNH
hPa
Press
MSL
hPa
Rain
since 9 am
mm
Dir
 
Spd
km/h
Gust
km/h
Spd
kts
Gust
kts
24/02:30pm 23.6 18.3 8.5 38 8.3 NNW 26 35 14 19 1016.5 - 0.0
24/02:00pm 23.1 17.3 9.5 42 7.6 NNW 30 37 16 20 1016.8 - 0.0
24/01:30pm 22.9 17.9 9.7 43 7.4 N 26 44 14 24 1016.9 - 0.0
24/01:00pm 22.6 16.4 10.1 45 7.1 NW 33 43 18 23 1016.9 - 0.0
24/12:30pm 22.0 15.8 9.2 44 7.1 NW 32 43 17 23 1017.1 - 0.0
24/12:00pm 22.1 16.0 9.9 46 6.8 NNW 32 41 17 22 1017.6 1015.4 0.0
24/11:30am 21.5 15.4 9.7 47 6.6 NW 32 41 17 22 1018.1 - 0.0
24/11:00am 21.4 16.2 10.3 49 6.3 NNW 28 35 15 19 1018.6 - 0.0
24/10:30am 20.8 14.6 10.0 50 6.0 NW 33 48 18 26 1018.9 - 0.0
24/10:00am 20.2 13.5 9.5 50 5.9 NW 35 44 19 24 1018.9 - 0.0
24/09:30am 19.9 13.8 9.8 52 5.6 NNW 32 41 17 22 1019.1 - 0.0
24/09:00am 19.1 13.2 9.0 52 5.5 NNW 30 35 16 19 1019.2 1017.0 0.0
24/08:30am 18.6 12.3 8.8 53 5.3 NNW 32 37 17 20 1019.0 - 0.0
24/08:00am 18.1 12.4 8.4 53 5.2 NNW 28 32 15 17 1018.8 - 0.0
24/07:30am 17.6 12.2 8.2 54 5.0 NNW 26 30 14 16 1018.4 - 0.0
24/07:00am 16.3 10.9 7.8 57 4.4 NNW 26 30 14 16 1018.0 - 0.0
24/06:30am 16.0 10.9 7.7 58 4.3 NNW 24 28 13 15 1017.9 - 0.0
24/06:00am 16.0 11.3 7.7 58 4.3 NW 22 26 12 14 1017.7 1015.5 0.0
24/05:30am 16.5 12.2 7.7 56 4.6 NW 20 24 11 13 1017.5 - 0.0
24/05:00am 16.7 12.6 7.9 56 4.6 NW 19 22 10 12 1017.4 - 0.0
24/04:30am 16.9 12.8 7.8 55 4.8 NW 19 20 10 11 1017.3 - 0.0
24/04:00am 17.2 13.5 7.8 54 4.9 NW 17 20 9 11 1017.3 - 0.0
24/03:30am 17.2 12.8 7.5 53 5.1 NW 20 24 11 13 1017.1 - 0.0
24/03:00am 17.9 13.5 7.6 51 5.4 NW 20 24 11 13 1017.1 1015.0 0.0
24/02:30am 17.7 13.9 7.4 51 5.4 NW 17 22 9 12 1017.3 - 0.0
24/02:00am 17.8 14.4 7.5 51 5.4 NW 15 19 8 10 1017.4 - 0.0
24/01:30am 18.4 15.4 7.5 49 5.7 NW 13 19 7 10 1017.6 - 0.0
24/01:00am 18.2 15.9 7.3 49 5.7 NW 9 13 5 7 1017.7 - 0.0
24/12:30am 18.6 17.2 7.4 48 5.9 S 4 9 2 5 1017.9 - 0.0
24/12:00am 17.7 15.8 7.7 52 5.3 ESE 7 9 4 5 1018.1 1016.0 0.0
 
Date/Time
EST
Temp
°C
App
Temp
°C
Dew
Point
Rel
Hum
%
Delta-T
°C
Wind Press
QNH
hPa
Press
MSL
hPa
Rain
since 9 am
mm
Dir
 
Spd
km/h
Gust
km/h
Spd
kts
Gust
kts
23/11:30pm 17.6 14.9 7.4 51 5.3 ESE 11 13 6 7 1018.3 - 0.0
23/11:00pm 17.3 14.2 7.4 52 5.2 ESE 13 13 7 7 1018.4 - 0.0
23/10:30pm 17.1 14.1 7.5 53 5.0 ESE 13 15 7 8 1018.6 - 0.0
23/10:00pm 17.3 14.5 7.1 51 5.3 ESE 11 13 6 7 1018.8 - 0.0
23/09:30pm 17.3 14.2 7.1 51 5.3 ESE 13 13 7 7 1018.8 - 0.0
23/09:00pm 17.2 13.8 6.1 48 5.6 ESE 13 13 7 7 1019.0 1016.8 0.0
23/08:30pm 17.7 14.4 6.3 47 5.8 SE 13 15 7 8 1019.0 - 0.0
23/08:00pm 18.3 14.7 5.2 42 6.6 ESE 13 15 7 8 1018.9 - 0.0
23/07:30pm 18.4 15.0 4.2 39 7.0 ESE 11 13 6 7 1018.8 - 0.0
23/07:00pm 18.9 15.5 3.9 37 7.4 ESE 11 13 6 7 1018.6 - 0.0
23/06:30pm 19.7 16.7 4.2 36 7.7 ESE 9 11 5 6 1018.5 - 0.0
23/06:00pm 20.4 17.8 4.4 35 8.0 SSE 7 9 4 5 1018.2 1016.1 0.0
23/05:30pm 20.6 18.0 4.2 34 8.2 WSW 7 13 4 7 1018.1 - 0.0
23/05:00pm 21.9 18.2 4.5 32 8.8 WNW 13 17 7 9 1017.8 - 0.0
23/04:30pm 22.7 18.9 5.6 33 8.9 WNW 15 20 8 11 1017.5 - 0.0
23/04:00pm 22.9 18.1 5.8 33 9.0 NW 20 32 11 17 1017.1 - 0.0
23/03:30pm 22.9 15.6 5.3 32 9.1 NW 33 43 18 23 1017.1 - 0.0
23/03:00pm 22.8 15.4 4.8 31 9.2 NW 33 44 18 24 1016.9 1014.8 0.0
23/02:32pm 23.0 15.9 5.4 32 9.2 NW 32 50 17 27 1016.9 - 0.0
23/02:30pm 23.4 16.6 7.1 35 8.8 NW 32 46 17 25 1017.3 - 0.0
23/02:00pm 23.1 15.9 6.0 33 9.0 NW 33 48 18 26 1016.9 - 0.0
23/01:42pm 22.2 14.7 8.0 40 7.7 NW 37 56 20 30 1017.3 - 0.0
23/01:30pm 22.1 14.4 8.6 42 7.4 NW 39 46 21 25 1017.3 - 0.0
23/01:00pm 22.4 14.1 9.2 43 7.3 NNW 43 54 23 29 1017.4 - 0.0
23/12:30pm 21.9 14.4 9.4 45 6.9 NW 39 48 21 26 1017.8 - 0.0
23/12:00pm 21.5 14.7 10.6 50 6.2 NW 37 48 20 26 1018.3 1016.2 0.0
23/11:30am 21.4 15.3 10.3 49 6.3 NW 33 48 18 26 1019.1 - 0.0
23/11:00am 20.8 13.5 10.3 51 5.9 NW 39 52 21 28 1019.3 - 0.0
23/10:32am 20.0 12.3 10.1 53 5.5 NW 41 61 22 33 1019.4 - 0.0
23/10:30am 20.0 12.3 10.1 53 5.5 NW 41 52 22 28 1019.3 - 0.0
23/10:00am 19.8 13.7 10.5 55 5.2 NNW 33 46 18 25 1019.9 - 0.0
23/09:30am 18.8 12.9 10.6 59 4.6 NNW 32 43 17 23 1020.0 - 0.0
23/09:00am 18.1 12.6 10.7 62 4.1 NNW 30 33 16 18 1020.3 1018.1 0.0
23/08:30am 17.8 14.0 11.1 65 3.8 NNW 22 28 12 15 1020.3 - 0.0
23/08:00am 17.1 12.7 10.5 65 3.6 NNW 24 30 13 16 1020.0 - 0.0
23/07:30am 16.4 12.4 10.5 68 3.2 NNW 22 24 12 13 1019.9 - 0.0
23/07:00am 15.2 11.5 10.2 72 2.7 NW 20 24 11 13 1019.8 - 0.0
23/06:30am 15.2 11.1 10.2 72 2.7 NW 22 24 12 13 1019.7 - 0.0
23/06:00am 16.1 12.4 10.2 68 3.2 NW 20 24 11 13 1019.5 1017.4 0.0
23/05:30am 15.9 12.7 10.0 68 3.2 NNW 17 20 9 11 1019.5 - 0.0
23/05:00am 15.3 11.5 9.2 67 3.3 NW 19 22 10 12 1019.3 - 0.0
23/04:30am 16.5 13.7 10.1 66 3.5 NW 15 17 8 9 1019.2 - 0.0
23/04:00am 16.6 14.9 8.3 58 4.4 NNW 7 11 4 6 1019.1 - 0.0
23/03:30am 15.4 13.3 5.6 52 4.9 ESE 6 7 3 4 1019.2 - 0.0
23/03:00am 14.9 12.3 6.0 55 4.4 ESE 9 9 5 5 1019.0 1016.8 0.0
23/02:30am 14.6 12.0 6.2 57 4.2 ESE 9 11 5 6 1019.1 - 0.0
23/02:00am 14.3 10.7 6.6 60 3.9 ESE 15 17 8 9 1019.3 - 0.0
23/01:30am 14.4 10.9 7.0 61 3.8 ESE 15 17 8 9 1019.6 - 0.0
23/01:00am 14.2 10.3 7.0 62 3.7 SE 17 19 9 10 1019.8 - 0.0
23/12:30am 14.1 10.1 8.3 68 3.0 SE 19 20 10 11 1019.9 - 0.0
23/12:00am 14.4 10.5 8.6 68 3.0 SE 19 20 10 11 1019.8 1017.7 0.0
 
Date/Time
EST
Temp
°C
App
Temp
°C
Dew
Point
Rel
Hum
%
Delta-T
°C
Wind Press
QNH
hPa
Press
MSL
hPa
Rain
since 9 am
mm
Dir
 
Spd
km/h
Gust
km/h
Spd
kts
Gust
kts
22/11:30pm 14.6 10.8 9.2 70 2.9 ESE 19 20 10 11 1019.9 - 0.0
22/11:00pm 14.9 11.4 8.8 67 3.2 ESE 17 19 9 10 1020.0 - 0.0
22/10:30pm 15.3 12.2 9.0 66 3.3 ESE 15 17 8 9 1020.1 - 0.0
22/10:00pm 15.0 11.8 8.5 65 3.4 SE 15 17 8 9 1020.3 - 0.0
22/09:30pm 15.6 12.4 8.6 63 3.7 SE 15 15 8 8 1020.1 - 0.0
22/09:00pm 15.8 12.6 8.5 62 3.8 ESE 15 17 8 9 1020.1 1018.0 0.0
22/08:30pm 16.0 12.9 9.0 63 3.7 SE 15 17 8 9 1019.8 - 0.0
22/08:00pm 16.1 13.5 9.5 65 3.6 ESE 13 15 7 8 1019.7 - 0.0
22/07:30pm 17.6 15.7 9.0 57 4.6 ESE 9 11 5 6 1019.6 - 0.0
22/07:00pm 18.3 16.0 9.1 55 5.0 E 11 13 6 7 1019.5 - 0.0
22/06:30pm 19.4 19.3 9.3 52 5.5 CALM 0 6 0 3 1019.4 - 0.0
22/06:00pm 19.1 17.3 9.3 53 5.3 NW 9 11 5 6 1019.1 1016.9 0.0
22/05:30pm 19.4 16.0 9.3 52 5.5 NNW 17 20 9 11 1018.9 - 0.0
22/05:00pm 20.4 16.2 9.6 50 6.0 NW 22 28 12 15 1018.6 - 0.0
22/04:30pm 20.9 15.1 9.5 48 6.3 NW 30 35 16 19 1018.5 - 0.0
22/04:00pm 20.9 14.5 9.5 48 6.3 NW 33 43 18 23 1018.5 - 0.0
22/03:30pm 21.2 13.6 9.1 46 6.7 NW 39 50 21 27 1018.4 - 0.0
22/03:00pm 21.1 12.8 9.4 47 6.5 NW 43 56 23 30 1018.4 1016.3 0.0
22/02:33pm 20.7 12.9 8.4 45 6.7 NNW 39 57 21 31 1018.2 - 0.0
22/02:30pm 21.2 13.9 8.8 45 6.8 NW 37 46 20 25 1018.5 - 0.0
22/02:00pm 21.3 13.2 8.6 44 6.9 NW 41 54 22 29 1018.5 - 0.0
22/01:30pm 20.2 11.4 7.9 45 6.6 NW 44 56 24 30 1018.5 - 0.0
22/01:00pm 20.3 11.3 7.3 43 6.9 NW 44 57 24 31 1018.8 - 0.0
22/12:30pm 19.7 10.5 6.4 42 6.9 NNW 44 52 24 28 1019.4 - 0.0
22/12:00pm 20.0 9.8 5.3 38 7.5 NNW 48 57 26 31 1019.7 1017.6 0.0
22/11:30am 20.0 11.6 5.6 39 7.4 NNW 39 46 21 25 1020.6 - 0.0
22/11:00am 19.6 11.3 6.3 42 6.9 NNW 39 46 21 25 1020.9 - 0.0
22/10:30am 19.1 9.8 5.2 40 7.0 NW 43 52 23 28 1021.0 - 0.0
22/10:00am 18.3 10.5 6.5 46 6.1 NNW 37 46 20 25 1021.1 - 0.0
22/09:30am 17.5 9.4 5.1 44 6.2 NNW 37 44 20 24 1021.2 - 0.0
22/09:00am 16.4 9.2 4.8 46 5.7 NNW 32 41 17 22 1021.3 1019.2 0.0
22/08:30am 14.8 8.2 4.2 49 5.1 NNW 28 32 15 17 1021.4 - 0.0
22/08:00am 13.8 7.5 3.6 50 4.8 NNW 26 30 14 16 1021.3 - 0.0
22/07:30am 12.5 6.4 2.9 52 4.4 NW 24 30 13 16 1021.1 - 0.0
22/07:00am 11.7 5.6 2.7 54 4.1 NW 24 28 13 15 1020.9 - 0.0
22/06:30am 11.7 5.9 2.2 52 4.3 NW 22 24 12 13 1020.7 - 0.0
22/06:00am 12.1 5.9 2.3 51 4.4 NW 24 26 13 14 1020.5 1018.4 0.0
22/05:30am 12.8 6.6 2.1 48 4.8 NW 24 26 13 14 1020.3 - 0.0
22/05:00am 13.4 7.9 2.0 46 5.2 NW 20 22 11 12 1020.1 - 0.0
22/04:30am 13.6 8.7 2.2 46 5.2 NW 17 20 9 11 1020.3 - 0.0
22/04:00am 14.4 10.3 2.3 44 5.6 NW 13 17 7 9 1020.3 - 0.0
22/03:30am 13.8 11.4 4.4 53 4.5 S 6 7 3 4 1020.3 - 0.0
22/03:00am 12.8 9.7 3.7 54 4.2 SE 9 11 5 6 1020.5 1018.4 0.0
22/02:30am 12.7 9.6 3.4 53 4.3 SE 9 9 5 5 1020.7 - 0.0
22/02:00am 13.4 10.4 4.0 53 4.5 SE 9 11 5 6 1021.0 - 0.0
22/01:30am 12.5 9.0 3.7 55 4.1 SE 11 13 6 7 1021.2 - 0.0
22/01:00am 13.0 9.2 3.9 54 4.3 ESE 13 15 7 8 1021.3 - 0.0
22/12:30am 12.9 9.1 3.8 54 4.3 ESE 13 15 7 8 1021.3 - 0.0
22/12:00am 13.1 9.3 3.7 53 4.4 SE 13 15 7 8 1021.5 1019.4 0.0
 
Date/Time
EST
Temp
°C
App
Temp
°C
Dew
Point
Rel
Hum
%
Delta-T
°C
Wind Press
QNH
hPa
Press
MSL
hPa
Rain
since 9 am
mm
Dir
 
Spd
km/h
Gust
km/h
Spd
kts
Gust
kts
21/11:30pm 12.9 9.1 3.8 54 4.3 SE 13 15 7 8 1021.7 - 0.0
21/11:00pm 13.2 9.8 3.8 53 4.4 ESE 11 13 6 7 1021.9 - 0.0
21/10:30pm 13.3 9.5 3.7 52 4.5 SE 13 15 7 8 1022.0 - 0.0
21/10:00pm 13.2 9.3 3.6 52 4.5 ESE 13 15 7 8 1022.0 - 0.0
21/09:30pm 13.0 9.1 3.4 52 4.5 ESE 13 17 7 9 1022.1 - 0.0
21/09:00pm 13.6 9.8 3.7 51 4.6 SE 13 15 7 8 1022.0 1019.9 0.0
21/08:30pm 13.2 9.3 3.3 51 4.6 SE 13 13 7 7 1022.0 - 0.0
21/08:00pm 14.6 11.4 3.1 46 5.4 ESE 9 11 5 6 1021.9 - 0.0
21/07:30pm 14.7 10.8 3.5 47 5.3 S 13 17 7 9 1021.8 - 0.0
21/07:00pm 15.4 12.6 2.9 43 5.9 ESE 7 7 4 4 1021.5 - 0.0
21/06:30pm 15.7 12.7 1.1 37 6.6 W 6 7 3 4 1021.2 - 0.0
21/06:00pm 15.8 13.0 1.9 39 6.4 WNW 6 7 3 4 1020.9 1018.8 0.0
21/05:30pm 16.2 12.9 2.6 40 6.4 WNW 9 13 5 7 1020.7 - 0.0
21/05:00pm 17.9 14.3 3.0 37 7.2 WNW 11 15 6 8 1020.3 - 0.0
21/04:30pm 18.6 13.9 2.9 35 7.6 WNW 17 20 9 11 1020.3 - 0.0
21/04:00pm 19.5 15.2 3.2 34 7.9 NNW 15 20 8 11 1020.1 - 0.0
21/03:30pm 19.3 14.4 2.2 32 8.2 NW 17 22 9 12 1020.0 - 0.0
21/03:00pm 19.2 13.9 3.0 34 7.8 NW 20 26 11 14 1019.8 1017.7 0.0

Other Formats:

Comma delimited format used in spreadsheet applications
http://www.bom.gov.au/fwo/IDN60801/IDN60801.95747.axf

JavaScript Object Notation format (JSON) in row-major order
http://www.bom.gov.au/fwo/IDN60801/IDN60801.95747.json